Time;durP1;ratioP1;P1;durP2;ratioP2;P2;SDS_P1;SDS_P2;PMS_P1;PMS_P2;Temp;Humidity;BMP_temperature;BMP_pressure;BME280_temperature;BME280_humidity;BME280_pressure;Samples;Min_cycle;Max_cycle;Signal;HPM_P1;HPM_P2
2023/06/07 00:01:12;;;;;;;10.82;5.53;;;;;;;10.17;79.19;101207.31;5035021;28;20030;-93
2023/06/07 00:03:38;;;;;;;7.30;5.13;;;;;;;10.08;79.40;101209.41;5037026;28;20108;-94
2023/06/07 00:06:05;;;;;;;8.00;4.75;;;;;;;10.01;79.80;101202.84;5035585;28;20092;-94
2023/06/07 00:08:31;;;;;;;11.35;5.28;;;;;;;10.00;79.99;101210.66;5036471;28;20039;-95
2023/06/07 00:10:57;;;;;;;8.38;5.57;;;;;;;9.99;79.89;101201.22;5036370;28;20501;-95
2023/06/07 00:13:23;;;;;;;9.48;6.13;;;;;;;10.01;79.41;101196.84;5036728;28;20036;-94
2023/06/07 00:15:48;;;;;;;7.45;5.57;;;;;;;10.01;79.25;101200.25;5035299;28;20083;-94
2023/06/07 00:18:15;;;;;;;10.60;6.20;;;;;;;9.94;79.58;101195.44;5034627;28;20049;-95
2023/06/07 00:20:45;;;;;;;12.85;6.13;;;;;;;9.84;79.81;101185.50;5035955;28;20377;-94
2023/06/07 00:23:13;;;;;;;11.15;5.70;;;;;;;9.80;80.01;101196.88;5036363;28;20036;-92
2023/06/07 00:25:39;;;;;;;8.90;5.82;;;;;;;9.92;79.12;101194.66;5037604;28;20025;-94
2023/06/07 00:28:04;;;;;;;8.90;5.25;;;;;;;9.80;79.93;101186.56;5036363;28;20056;-95
2023/06/07 00:30:30;;;;;;;10.93;5.25;;;;;;;9.75;80.38;101190.22;5046901;28;20029;-94
2023/06/07 00:32:55;;;;;;;12.85;5.93;;;;;;;9.67;80.90;101182.81;5054486;28;20021;-96
2023/06/07 00:35:21;;;;;;;11.85;6.80;;;;;;;9.67;80.54;101189.69;5055841;28;20028;-94
2023/06/07 00:37:46;;;;;;;9.45;5.93;;;;;;;9.68;80.39;101189.66;5056799;28;20021;-93
2023/06/07 00:40:12;;;;;;;8.02;6.10;;;;;;;9.55;81.36;101168.69;5055236;28;20345;-95
2023/06/07 00:42:37;;;;;;;9.75;6.40;;;;;;;9.55;81.18;101178.16;5057632;28;20391;-94
2023/06/07 00:45:03;;;;;;;12.73;6.15;;;;;;;9.53;81.32;101183.34;5046022;28;20108;-94
2023/06/07 00:47:29;;;;;;;12.05;6.70;;;;;;;9.49;81.19;101174.09;5038191;28;20029;-94
2023/06/07 00:49:55;;;;;;;9.82;5.85;;;;;;;9.55;81.04;101178.16;5036072;28;20083;-93
2023/06/07 00:52:21;;;;;;;9.95;6.50;;;;;;;9.48;81.54;101176.72;5036030;28;20021;-94
2023/06/07 00:54:48;;;;;;;9.90;6.18;;;;;;;9.41;81.99;101179.56;5034549;28;20053;-94
2023/06/07 00:57:16;;;;;;;9.18;6.03;;;;;;;9.35;82.32;101177.22;5034026;28;20033;-94
2023/06/07 00:59:43;;;;;;;11.75;6.43;;;;;;;9.36;82.15;101173.78;5035240;28;20546;-93
2023/06/07 01:02:08;;;;;;;11.10;6.80;;;;;;;9.43;81.66;101169.19;5034130;28;20029;-93
2023/06/07 01:04:40;;;;;;;20.35;7.45;;;;;;;9.42;82.06;101173.50;5038021;28;20506;-94
2023/06/07 01:07:07;;;;;;;;;;;;;;;9.38;82.02;101184.81;5034726;28;20014;-93
2023/06/07 01:09:34;;;;;;;11.50;5.95;;;;;;;9.34;81.90;101170.41;5035084;28;19916;-94
2023/06/07 01:12:00;;;;;;;11.20;6.25;;;;;;;9.24;82.38;101169.09;5031903;28;20029;-93
2023/06/07 01:14:26;;;;;;;14.23;6.05;;;;;;;9.27;82.55;101168.97;5032038;28;20398;-93
2023/06/07 01:16:53;;;;;;;12.68;7.03;;;;;;;9.21;82.84;101159.75;5031989;28;20033;-92
2023/06/07 01:19:24;;;;;;;14.15;6.40;;;;;;;9.21;82.51;101164.06;5031422;28;20032;-92
2023/06/07 01:21:51;;;;;;;9.65;5.68;;;;;;;9.17;82.90;101167.69;5032021;28;20119;-93
2023/06/07 01:24:18;;;;;;;9.80;6.55;;;;;;;9.23;82.62;101166.59;5032678;28;20033;-93
2023/06/07 01:26:45;;;;;;;12.40;6.03;;;;;;;9.16;82.93;101166.00;5032048;28;20063;-92
2023/06/07 01:29:12;;;;;;;11.65;6.35;;;;;;;9.07;83.41;101168.91;5030246;28;20040;-92
2023/06/07 01:31:39;;;;;;;9.45;6.40;;;;;;;9.03;84.07;101165.63;5032080;28;20064;-93
2023/06/07 01:34:07;;;;;;;13.98;5.88;;;;;;;9.07;83.60;101166.34;5036539;28;20026;-92
2023/06/07 01:36:33;;;;;;;10.95;5.55;;;;;;;9.01;84.14;101167.44;5036978;28;20032;-92
2023/06/07 01:39:01;;;;;;;15.23;6.25;;;;;;;8.97;84.50;101165.88;5037170;28;20029;-93
2023/06/07 01:41:30;;;;;;;12.10;6.70;;;;;;;8.95;84.57;101165.94;5035752;28;20108;-93
2023/06/07 01:43:58;;;;;;;10.55;5.25;;;;;;;8.99;84.49;101170.06;5035383;28;20033;-92
2023/06/07 01:46:25;;;;;;;12.77;6.30;;;;;;;8.97;84.70;101166.72;5034933;28;20034;-93
2023/06/07 01:48:51;;;;;;;7.60;5.65;;;;;;;8.95;84.83;101163.38;5035707;28;20122;-92
2023/06/07 01:51:16;;;;;;;16.38;6.93;;;;;;;8.94;84.67;101161.69;5035876;28;20110;-93
2023/06/07 01:53:43;;;;;;;9.27;5.53;;;;;;;8.94;84.79;101159.09;5036889;28;20060;-93
2023/06/07 01:56:19;;;;;;;9.00;6.28;;;;;;;8.95;84.81;101154.81;5036808;28;20025;-93
2023/06/07 01:58:56;;;;;;;11.73;5.93;;;;;;;8.87;85.44;101160.22;5034398;28;20670;-92
2023/06/07 02:01:33;;;;;;;10.05;5.75;;;;;;;8.94;85.37;101161.69;5035925;28;20141;-94
2023/06/07 02:04:00;;;;;;;9.80;6.03;;;;;;;8.99;85.38;101152.03;5036066;28;20026;-93
2023/06/07 02:06:40;;;;;;;10.13;5.75;;;;;;;8.90;85.63;101154.13;5036550;28;20030;-92
2023/06/07 02:09:11;;;;;;;13.63;7.00;;;;;;;8.83;86.34;101150.13;5034942;28;20033;-93
2023/06/07 02:11:41;;;;;;;11.48;6.72;;;;;;;8.79;86.90;101146.84;5036333;28;20373;-94
2023/06/07 02:14:07;;;;;;;9.10;6.32;;;;;;;8.79;86.73;101139.94;5034770;28;20095;-93
2023/06/07 02:16:37;;;;;;;7.72;6.43;;;;;;;8.87;86.82;101142.22;5036894;28;20156;-93
2023/06/07 02:19:07;;;;;;;8.30;5.75;;;;;;;8.82;86.89;101151.84;5034967;28;20086;-93
2023/06/07 02:21:37;;;;;;;7.63;5.70;;;;;;;8.78;87.47;101145.16;5035107;28;20021;-93
2023/06/07 02:24:06;;;;;;;15.95;6.22;;;;;;;8.73;87.45;101137.63;5036183;28;20076;-93
2023/06/07 02:26:32;;;;;;;12.02;6.78;;;;;;;8.76;87.68;101141.81;5036921;28;20023;-93
2023/06/07 02:28:58;;;;;;;7.97;5.22;;;;;;;8.79;87.44;101137.38;5035501;28;20035;-93
2023/06/07 02:31:25;;;;;;;10.38;6.18;;;;;;;8.79;88.11;101141.69;5036757;28;20033;-92
2023/06/07 02:33:51;;;;;;;10.82;6.13;;;;;;;8.74;88.65;101129.00;5036119;28;20599;-94
2023/06/07 02:36:21;;;;;;;9.30;5.63;;;;;;;8.78;88.63;101122.00;5035749;28;20013;-94
2023/06/07 02:38:46;;;;;;;8.82;5.60;;;;;;;8.82;88.45;101126.13;5035160;28;20418;-93
2023/06/07 02:41:11;;;;;;;10.57;5.88;;;;;;;8.81;88.59;101129.59;5035822;28;20017;-94
2023/06/07 02:43:37;;;;;;;9.95;5.63;;;;;;;8.70;89.58;101121.44;5035127;28;20464;-92
2023/06/07 02:46:03;;;;;;;7.68;5.57;;;;;;;8.74;90.00;101125.59;5035261;28;20021;-93
2023/06/07 02:48:28;;;;;;;11.57;5.88;;;;;;;8.81;90.10;101124.44;5035416;28;20028;-93
2023/06/07 02:50:53;;;;;;;10.55;6.35;;;;;;;8.83;90.55;101135.53;5034908;28;20026;-94
2023/06/07 02:53:19;;;;;;;11.65;5.60;;;;;;;8.82;90.10;101133.00;5035736;28;20029;-93
2023/06/07 02:55:44;;;;;;;10.30;6.50;;;;;;;8.81;89.86;101132.19;5037106;28;20017;-94
2023/06/07 02:58:10;;;;;;;10.00;5.65;;;;;;;8.84;90.14;101128.66;5034268;28;20033;-92
2023/06/07 03:00:35;;;;;;;9.65;6.00;;;;;;;8.87;90.04;101136.22;5036984;28;20028;-95
2023/06/07 03:03:01;;;;;;;12.52;6.35;;;;;;;8.81;90.48;101132.19;5035401;28;20025;-94
2023/06/07 03:05:26;;;;;;;9.90;5.72;;;;;;;8.92;89.65;101132.56;5035922;28;20049;-95
2023/06/07 03:07:52;;;;;;;9.98;5.78;;;;;;;8.84;90.20;101126.91;5037027;28;20017;-94
2023/06/07 03:10:18;;;;;;;8.55;4.97;;;;;;;8.78;90.45;101129.72;5038138;28;20029;-93
2023/06/07 03:12:44;;;;;;;10.07;5.70;;;;;;;8.78;90.39;101130.56;5036849;28;20471;-95
2023/06/07 03:15:09;;;;;;;6.80;4.70;;;;;;;8.75;90.51;101132.41;5038355;28;20479;-95
2023/06/07 03:17:36;;;;;;;7.32;4.63;;;;;;;8.81;90.76;101131.34;5038552;28;20024;-94
2023/06/07 03:20:06;;;;;;;7.60;4.90;;;;;;;8.75;90.67;101120.38;5039600;28;20013;-94
2023/06/07 03:22:31;;;;;;;7.03;4.78;;;;;;;8.86;89.59;101127.69;5038063;28;20026;-94
2023/06/07 03:24:57;;;;;;;7.40;5.15;;;;;;;8.78;89.95;101129.72;5038031;28;20045;-95
2023/06/07 03:27:23;;;;;;;6.65;4.07;;;;;;;8.73;89.91;101132.47;5037626;28;20025;-95
2023/06/07 03:29:50;;;;;;;6.78;4.68;;;;;;;8.68;90.38;101130.97;5036194;28;20475;-94
2023/06/07 03:32:16;;;;;;;9.07;5.03;;;;;;;8.78;90.21;101137.44;5039147;28;20120;-94
2023/06/07 03:34:42;;;;;;;5.80;4.60;;;;;;;8.74;89.44;101123.84;5037636;28;20115;-95
2023/06/07 03:37:08;;;;;;;7.63;5.30;;;;;;;8.72;89.81;101128.22;5041004;28;20025;-95
2023/06/07 03:39:35;;;;;;;7.63;4.72;;;;;;;8.77;89.12;101128.03;5037605;28;20029;-95
2023/06/07 03:42:01;;;;;;;8.35;5.20;;;;;;;8.77;88.79;101125.47;5039940;28;20052;-95
2023/06/07 03:44:26;;;;;;;8.88;4.60;;;;;;;8.68;88.90;101120.66;5038591;28;20029;-95
2023/06/07 03:46:52;;;;;;;5.78;4.63;;;;;;;8.78;87.59;101114.28;5038324;28;20030;-95
2023/06/07 03:49:17;;;;;;;8.63;4.70;;;;;;;8.72;87.79;101109.34;5039489;28;20053;-95
2023/06/07 03:51:43;;;;;;;7.35;5.35;;;;;;;8.70;87.88;101106.84;5038184;28;20056;-94
2023/06/07 03:54:09;;;;;;;7.93;5.15;;;;;;;8.66;87.54;101110.44;5039476;28;20033;-95
2023/06/07 03:56:35;;;;;;;7.03;5.05;;;;;;;8.58;88.04;101102.16;5038020;28;20032;-95
2023/06/07 03:59:01;;;;;;;10.45;5.43;;;;;;;8.59;87.95;101108.19;5039477;28;20022;-94
2023/06/07 04:01:27;;;;;;;7.68;5.22;;;;;;;8.55;88.27;101108.28;5038149;28;20510;-96
2023/06/07 04:03:53;;;;;;;10.25;4.20;;;;;;;8.61;88.53;101111.50;5039013;28;20025;-94
2023/06/07 04:06:24;;;;;;;9.77;5.47;;;;;;;8.64;87.99;101108.84;5038534;28;20021;-94
2023/06/07 04:08:51;;;;;;;10.87;6.87;;;;;;;8.63;88.19;101115.69;5037207;28;20041;-95
2023/06/07 04:11:20;;;;;;;9.95;5.03;;;;;;;8.65;88.16;101110.50;5038896;28;20041;-94
2023/06/07 04:13:45;;;;;;;9.38;4.95;;;;;;;8.61;88.37;101111.50;5037910;28;20032;-96
2023/06/07 04:16:11;;;;;;;8.10;4.88;;;;;;;8.66;88.55;101105.31;5040879;28;20049;-95
2023/06/07 04:18:37;;;;;;;7.22;5.25;;;;;;;8.62;88.51;101108.03;5038373;28;20045;-96
2023/06/07 04:21:03;;;;;;;9.43;4.78;;;;;;;8.54;88.72;101110.91;5040367;28;20021;-95
2023/06/07 04:23:28;;;;;;;9.40;5.00;;;;;;;8.69;87.98;101109.50;5038122;28;20029;-95
2023/06/07 04:25:54;;;;;;;7.50;4.78;;;;;;;8.54;88.61;101101.47;5039203;28;20384;-95
2023/06/07 04:28:23;;;;;;;7.75;5.15;;;;;;;8.56;88.85;101099.66;5037672;28;20027;-95
2023/06/07 04:30:51;;;;;;;5.75;4.65;;;;;;;8.58;88.91;101104.75;5037402;28;20021;-96
2023/06/07 04:33:18;;;;;;;7.22;4.75;;;;;;;8.55;89.02;101097.97;5038299;28;20021;-94
2023/06/07 04:35:45;;;;;;;7.00;5.00;;;;;;;8.57;89.08;101101.34;5037262;28;20056;-95
2023/06/07 04:38:21;;;;;;;10.18;5.32;;;;;;;8.60;88.96;101104.69;5038179;28;20033;-95
2023/06/07 04:40:50;;;;;;;10.93;5.20;;;;;;;8.69;88.13;101099.19;5036769;28;20029;-95
2023/06/07 04:43:19;;;;;;;9.27;5.32;;;;;;;8.59;88.61;101109.00;5038405;28;20025;-95
2023/06/07 04:45:55;;;;;;;8.52;4.95;;;;;;;8.64;88.70;101106.25;5036667;28;20030;-95
2023/06/07 04:48:25;;;;;;;9.73;5.60;;;;;;;8.62;88.52;101113.19;5037620;28;20029;-94
2023/06/07 04:50:51;;;;;;;14.07;6.38;;;;;;;8.59;88.55;101097.88;5037198;28;20088;-95
2023/06/07 04:53:19;;;;;;;11.68;5.80;;;;;;;8.68;87.73;101112.94;5050982;28;20419;-94
2023/06/07 04:55:47;;;;;;;11.82;5.72;;;;;;;8.63;88.08;101109.72;5057443;28;20032;-95
2023/06/07 04:58:15;;;;;;;10.80;5.95;;;;;;;8.65;88.13;101110.50;5056630;28;20462;-95
2023/06/07 05:00:41;;;;;;;12.32;7.10;;;;;;;8.65;87.84;101107.91;5058140;28;20043;-96
2023/06/07 05:03:08;;;;;;;8.82;5.72;;;;;;;8.63;88.23;101105.41;5056609;28;20048;-96
2023/06/07 05:05:37;;;;;;;12.00;6.10;;;;;;;8.63;88.18;101104.56;5057686;28;20047;-93
2023/06/07 05:08:03;;;;;;;11.48;5.80;;;;;;;8.70;87.65;101109.41;5041563;28;20527;-94
2023/06/07 05:10:29;;;;;;;16.42;6.22;;;;;;;8.70;87.48;101106.00;5038047;28;20471;-96
2023/06/07 05:12:55;;;;;;;10.45;6.25;;;;;;;8.80;87.72;101112.47;5037691;28;20080;-96
2023/06/07 05:15:23;;;;;;;11.07;6.30;;;;;;;8.77;87.32;101112.59;5036858;28;20061;-95
2023/06/07 05:17:50;;;;;;;15.07;6.80;;;;;;;8.78;87.91;101115.13;5038708;28;20021;-94
2023/06/07 05:20:16;;;;;;;10.40;5.70;;;;;;;8.81;88.06;101119.31;5036448;28;20029;-95
2023/06/07 05:22:43;;;;;;;8.02;6.38;;;;;;;8.87;87.70;101113.91;5038945;28;20030;-95
2023/06/07 05:25:10;;;;;;;9.68;6.68;;;;;;;8.91;87.53;101105.16;5037021;28;20018;-94
2023/06/07 05:27:36;;;;;;;19.13;7.85;;;;;;;8.92;87.69;101100.84;5038676;28;20476;-95
2023/06/07 05:30:04;;;;;;;8.98;6.68;;;;;;;8.95;87.50;101101.59;5037131;28;20025;-95
2023/06/07 05:32:32;;;;;;;10.35;6.97;;;;;;;9.03;86.80;101097.88;5038476;28;20025;-95
2023/06/07 05:34:59;;;;;;;12.65;7.53;;;;;;;9.08;87.42;101101.91;5039230;28;20109;-96
2023/06/07 05:37:27;;;;;;;11.95;8.10;;;;;;;9.13;86.83;101097.41;5049891;28;20040;-95
2023/06/07 05:39:53;;;;;;;10.27;7.40;;;;;;;9.10;87.08;101104.44;5058920;28;20104;-95
2023/06/07 05:42:19;;;;;;;17.48;7.35;;;;;;;9.16;86.73;101114.47;5057051;28;20079;-95
2023/06/07 05:44:46;;;;;;;11.50;7.70;;;;;;;9.13;86.49;101096.59;5058685;28;20036;-95
2023/06/07 05:47:14;;;;;;;9.60;6.95;;;;;;;9.21;86.52;101099.66;5056931;28;20017;-96
2023/06/07 05:49:41;;;;;;;11.15;6.78;;;;;;;9.29;86.87;101089.91;5058069;28;20032;-96
2023/06/07 05:52:07;;;;;;;15.68;8.50;;;;;;;9.29;86.42;101097.63;5043896;28;20079;-94
2023/06/07 05:54:33;;;;;;;9.82;6.47;;;;;;;9.39;85.44;101100.66;5037518;28;20029;-96
2023/06/07 05:56:58;;;;;;;10.55;6.07;;;;;;;9.50;85.40;101102.78;5036836;28;20048;-95
2023/06/07 05:59:24;;;;;;;15.05;7.30;;;;;;;9.51;85.47;101105.31;5037741;28;20567;-96
2023/06/07 06:01:49;;;;;;;10.40;6.60;;;;;;;9.56;85.19;101102.50;5034925;28;20035;-95
2023/06/07 06:04:16;;;;;;;9.55;6.60;;;;;;;9.63;84.66;101103.91;5036363;28;20022;-95
2023/06/07 06:06:42;;;;;;;17.13;6.55;;;;;;;9.72;84.22;101103.53;5035502;28;20079;-95
2023/06/07 06:09:09;;;;;;;9.52;6.45;;;;;;;10.15;82.97;101106.81;5037183;28;20116;-95
2023/06/07 06:11:35;;;;;;;8.38;6.05;;;;;;;11.84;74.54;101103.81;5036687;28;20092;-95
2023/06/07 06:14:00;;;;;;;9.70;6.30;;;;;;;11.89;71.68;101107.03;5036057;28;20025;-96
2023/06/07 06:16:26;;;;;;;6.32;5.18;;;;;;;11.22;75.41;101116.44;5037224;28;20034;-95
2023/06/07 06:18:51;;;;;;;9.75;5.47;;;;;;;11.19;75.86;101115.75;5037943;28;20017;-96
2023/06/07 06:21:17;;;;;;;12.60;5.05;;;;;;;12.08;71.82;101121.59;5040653;28;20101;-96
2023/06/07 06:23:42;;;;;;;12.57;6.30;;;;;;;11.24;75.52;101119.78;5041287;28;20026;-95
2023/06/07 06:26:08;;;;;;;16.23;8.77;;;;;;;12.85;68.55;101111.34;5040193;28;20085;-96
2023/06/07 06:28:33;;;;;;;8.13;5.13;;;;;;;14.30;63.50;101116.63;5039079;28;20053;-96
2023/06/07 06:31:01;;;;;;;10.98;5.85;;;;;;;14.29;61.38;101121.94;5038520;28;20033;-95
2023/06/07 06:33:26;;;;;;;6.97;5.53;;;;;;;13.72;63.82;101132.31;5041524;28;20037;-96
2023/06/07 06:35:53;;;;;;;11.38;6.45;;;;;;;12.99;65.54;101135.63;5038976;28;20148;-96
2023/06/07 06:38:19;;;;;;;9.35;6.55;;;;;;;12.28;68.84;101136.91;5041380;28;20141;-96
2023/06/07 06:40:45;;;;;;;15.70;6.78;;;;;;;12.52;68.88;101136.50;5037220;28;20500;-95
2023/06/07 06:43:10;;;;;;;13.55;8.02;;;;;;;12.48;68.85;101135.00;5039199;28;20061;-95
2023/06/07 06:45:36;;;;;;;10.77;6.68;;;;;;;12.32;70.02;101145.34;5037709;28;20029;-95
2023/06/07 06:48:02;;;;;;;11.10;6.72;;;;;;;11.85;71.73;101146.03;5037439;28;20026;-96
2023/06/07 06:50:29;;;;;;;11.82;7.05;;;;;;;12.57;68.67;101137.09;5037726;28;20482;-96
2023/06/07 06:52:54;;;;;;;11.50;7.07;;;;;;;13.82;66.09;101151.59;5037149;28;20032;-96
2023/06/07 06:55:23;;;;;;;10.00;6.57;;;;;;;13.52;64.83;101149.88;5039128;28;20021;-96
2023/06/07 06:57:49;;;;;;;10.45;6.05;;;;;;;13.45;65.13;101149.41;5036522;28;20434;-96
2023/06/07 07:00:15;;;;;;;9.75;6.65;;;;;;;13.83;64.84;101154.09;5025289;28;20022;-95
2023/06/07 07:02:40;;;;;;;10.85;5.50;;;;;;;15.97;57.02;101154.34;5026066;28;20025;-95
2023/06/07 07:05:06;;;;;;;8.23;5.55;;;;;;;14.13;62.41;101156.59;5022039;28;20030;-95
2023/06/07 07:07:32;;;;;;;9.63;5.43;;;;;;;15.45;59.54;101151.78;5026059;28;20376;-96
2023/06/07 07:09:59;;;;;;;10.68;5.43;;;;;;;14.74;60.09;101151.16;5025027;28;20030;-96
2023/06/07 07:12:24;;;;;;;8.35;5.18;;;;;;;16.85;53.92;101153.38;5032842;28;20037;-96
2023/06/07 07:14:56;;;;;;;8.50;5.72;;;;;;;16.47;54.35;101162.16;5041409;28;20029;-96
2023/06/07 07:17:21;;;;;;;8.77;4.93;;;;;;;16.73;53.92;101167.28;5026944;28;20029;-94
2023/06/07 07:19:47;;;;;;;17.83;5.25;;;;;;;15.27;57.29;101170.28;5035174;28;20033;-95
2023/06/07 07:22:12;;;;;;;8.75;5.35;;;;;;;15.84;55.74;101169.13;5032880;28;20463;-96
2023/06/07 07:24:38;;;;;;;8.63;5.15;;;;;;;14.75;59.08;101163.22;5022752;28;20223;-96
2023/06/07 07:27:06;;;;;;;9.48;4.70;;;;;;;14.71;60.63;101177.34;5029406;28;20396;-95
2023/06/07 07:29:32;;;;;;;12.23;6.28;;;;;;;14.81;61.22;101170.63;5033913;28;20017;-96
2023/06/07 07:31:58;;;;;;;9.18;6.00;;;;;;;14.54;60.56;101166.25;5063031;28;20030;-96
2023/06/07 07:34:23;;;;;;;10.30;5.57;;;;;;;14.43;61.70;101163.44;5053156;28;20045;-96
2023/06/07 07:36:52;;;;;;;10.73;5.72;;;;;;;14.30;61.64;101165.13;5039414;28;20021;-96
2023/06/07 07:39:17;;;;;;;11.55;5.60;;;;;;;13.91;62.62;101171.81;5041671;28;20002;-96
2023/06/07 07:41:45;;;;;;;9.25;5.07;;;;;;;13.81;63.71;101168.94;5039501;28;20018;-96
2023/06/07 07:44:10;;;;;;;11.70;5.55;;;;;;;12.95;65.56;101175.56;5029214;28;20388;-95
2023/06/07 07:46:36;;;;;;;8.68;6.03;;;;;;;13.25;66.64;101176.44;5030185;28;20045;-96
2023/06/07 07:49:02;;;;;;;11.93;5.43;;;;;;;13.83;65.51;101168.84;5035264;28;20029;-96
2023/06/07 07:51:28;;;;;;;11.90;5.85;;;;;;;13.20;66.34;101175.88;5037929;28;20029;-95
2023/06/07 07:53:53;;;;;;;10.52;5.90;;;;;;;13.50;65.80;101172.47;5036111;28;20101;-96
2023/06/07 07:56:21;;;;;;;12.02;5.93;;;;;;;13.35;66.71;101173.38;5031266;28;20076;-94
2023/06/07 07:58:48;;;;;;;12.25;5.40;;;;;;;13.76;65.88;101162.34;5031099;28;20563;-96
2023/06/07 08:01:17;;;;;;;8.57;5.30;;;;;;;14.17;65.11;101166.78;5033076;28;20075;-96
2023/06/07 08:03:43;;;;;;;12.88;6.60;;;;;;;13.99;64.24;101168.75;5034833;28;20029;-96
2023/06/07 08:06:08;;;;;;;11.18;5.85;;;;;;;14.78;61.68;101163.03;5028686;28;20102;-95
2023/06/07 08:08:34;;;;;;;7.30;4.18;;;;;;;15.87;59.60;101162.88;5029597;28;20029;-95
2023/06/07 08:11:00;;;;;;;15.13;5.60;;;;;;;17.03;57.76;101157.28;5029581;28;20033;-95
2023/06/07 08:13:26;;;;;;;8.00;5.25;;;;;;;17.37;54.88;101157.41;5030891;28;20484;-96
2023/06/07 08:15:51;;;;;;;19.50;5.90;;;;;;;17.78;54.78;101163.88;5032140;28;20484;-95
2023/06/07 08:18:17;;;;;;;13.65;5.55;;;;;;;16.75;54.48;101162.78;5031824;28;20025;-96
2023/06/07 08:20:42;;;;;;;11.65;5.57;;;;;;;16.42;56.87;101164.25;5028450;28;20379;-94
2023/06/07 08:23:08;;;;;;;10.15;5.43;;;;;;;16.31;56.18;101166.78;5028916;28;20039;-95
2023/06/07 08:25:33;;;;;;;8.25;4.97;;;;;;;15.87;56.92;101165.47;5029094;28;20392;-95
2023/06/07 08:27:59;;;;;;;9.25;5.10;;;;;;;16.12;56.95;101168.06;5027840;28;20032;-94
2023/06/07 08:30:25;;;;;;;11.20;5.53;;;;;;;16.10;57.04;101163.91;5027574;28;20061;-96
2023/06/07 08:32:50;;;;;;;11.55;5.55;;;;;;;15.95;57.13;101156.22;5031896;28;20033;-94
2023/06/07 08:35:16;;;;;;;10.07;5.32;;;;;;;15.93;58.06;101162.47;5029980;28;20032;-95
2023/06/07 08:37:41;;;;;;;7.85;5.28;;;;;;;16.14;57.08;101149.72;5034423;28;20021;-96
2023/06/07 08:40:10;;;;;;;12.52;4.75;;;;;;;16.55;56.47;101153.78;5032474;28;20563;-96
2023/06/07 08:42:38;;;;;;;18.52;6.30;;;;;;;16.73;56.92;101147.28;5030898;28;20021;-96
2023/06/07 08:45:04;;;;;;;9.52;5.88;;;;;;;17.41;54.04;101139.72;5030090;28;20032;-94
2023/06/07 08:47:33;;;;;;;10.13;5.68;;;;;;;16.93;55.23;101140.63;5044589;28;20037;-93
2023/06/07 08:50:00;;;;;;;10.60;5.47;;;;;;;17.30;54.17;101143.97;5028107;28;20033;-94
2023/06/07 08:52:26;;;;;;;13.18;5.53;;;;;;;17.63;54.19;101138.94;5029651;28;20826;-96
2023/06/07 08:54:58;;;;;;;8.60;5.88;;;;;;;17.32;53.69;101146.47;5030487;28;20064;-95
2023/06/07 08:57:24;;;;;;;10.48;6.20;;;;;;;17.09;55.14;101154.22;5028767;28;20340;-95
2023/06/07 08:59:50;;;;;;;9.02;5.70;;;;;;;17.65;53.34;101140.47;5030750;28;20025;-94
2023/06/07 09:02:19;;;;;;;9.07;5.97;;;;;;;17.01;53.45;101148.72;5033781;28;20025;-96
2023/06/07 09:04:57;;;;;;;15.13;6.70;;;;;;;17.37;53.35;101143.53;5038190;28;20017;-96
2023/06/07 09:07:22;;;;;;;13.80;6.40;;;;;;;16.22;55.89;101142.22;5022920;28;20124;-93
2023/06/07 09:09:48;;;;;;;8.65;6.10;;;;;;;16.60;56.01;101139.47;5032158;28;20061;-95
2023/06/07 09:13:03;;;;;;;15.57;6.47;;;;;;;16.90;55.34;101133.06;5033144;28;20037;-96
2023/06/07 09:15:30;;;;;;;10.52;6.43;;;;;;;17.45;53.53;101139.38;5029768;28;20087;-95
2023/06/07 09:17:59;;;;;;;11.40;6.28;;;;;;;16.88;55.13;101135.75;5027393;28;20084;-96
2023/06/07 09:20:36;;;;;;;7.82;5.93;;;;;;;16.69;55.23;101140.59;5028695;28;20041;-96
2023/06/07 09:23:11;;;;;;;12.68;6.78;;;;;;;17.69;53.32;101135.84;5032418;28;20033;-96
2023/06/07 09:25:37;;;;;;;9.45;5.63;;;;;;;18.16;52.96;101139.22;5031577;28;20045;-94
2023/06/07 09:28:22;;;;;;;12.95;5.38;;;;;;;18.75;51.83;101132.78;5152507;22;20109;-96
2023/06/07 09:32:12;;;;;;;11.18;6.75;;;;;;;18.40;52.19;101124.22;4990474;28;20018;-96
2023/06/07 09:34:31;;;;;;;13.40;6.15;;;;;;;19.01;50.69;101115.84;4940927;28;20051;-95
2023/06/07 09:37:07;;;;;;;12.60;7.25;;;;;;;19.23;50.92;101122.72;4940313;28;20440;-96
2023/06/07 09:39:33;;;;;;;8.35;5.90;;;;;;;19.57;49.04;101119.09;4978380;28;20038;-95
2023/06/07 09:42:27;;;;;;;9.55;5.95;;;;;;;18.49;50.41;101114.00;4981665;28;20037;-96
2023/06/07 09:45:49;;;;;;;11.23;6.60;;;;;;;19.24;50.78;101111.31;4970326;28;20035;-96
2023/06/07 09:48:17;;;;;;;8.68;6.00;;;;;;;19.43;49.42;101115.00;4985931;28;20098;-96
2023/06/07 09:50:55;;;;;;;9.38;5.30;;;;;;;19.92;48.31;101118.72;4982156;28;20415;-95
2023/06/07 09:54:22;;;;;;;8.25;5.00;;;;;;;19.83;49.02;101109.03;4985410;28;20728;-96
2023/06/07 09:57:29;;;;;;;;;;;;;;;;;;;;;
2023/06/07 10:00:55;;;;;;;7.05;4.35;;;;;;;20.71;47.09;101104.84;4915293;29;20116;-96
2023/06/07 10:03:40;;;;;;;;;;;;;;;;;;;;;
2023/06/07 10:06:06;;;;;;;10.10;5.50;;;;;;;21.00;46.86;101114.50;4948350;29;20127;-96
2023/06/07 10:11:26;;;;;;;14.05;5.75;;;;;;;21.13;46.68;101105.38;5469002;22;20050;-96
2023/06/07 10:13:56;;;;;;;7.38;4.85;;;;;;;21.89;45.49;101114.16;5165063;22;20089;-96
2023/06/07 10:19:24;;;;;;;11.30;5.70;;;;;;;20.66;46.50;101104.44;5084981;22;20088;-96
2023/06/07 10:21:59;;;;;;;13.43;8.05;;;;;;;20.30;47.54;101104.06;5040813;28;20045;-95
2023/06/07 10:32:57;;;;;;;11.48;6.82;;;;;;;20.37;47.99;101104.38;5024785;22;20431;-92
2023/06/07 10:35:24;;;;;;;10.65;5.53;;;;;;;21.18;46.38;101089.19;4979352;28;20042;-95
2023/06/07 10:38:10;;;;;;;10.15;5.95;;;;;;;20.76;47.06;101094.75;4982556;28;20030;-96
2023/06/07 10:40:50;;;;;;;11.23;6.10;;;;;;;20.73;47.49;101102.91;4967031;28;20043;-96
2023/06/07 10:43:16;;;;;;;10.07;5.90;;;;;;;21.50;46.94;101088.03;5025082;23;20670;-96
2023/06/07 10:45:41;;;;;;;12.30;5.70;;;;;;;20.71;47.25;101082.06;5022189;28;20034;-95
2023/06/07 10:49:12;;;;;;;9.65;6.25;;;;;;;21.01;46.96;101088.09;5021592;28;20506;-96
2023/06/07 10:52:02;;;;;;;8.98;5.93;;;;;;;21.67;45.88;101079.41;5007709;28;20049;-96
2023/06/07 10:54:37;;;;;;;16.27;5.28;;;;;;;22.00;46.38;101075.38;5001004;28;20129;-96
2023/06/07 10:57:12;;;;;;;10.13;5.38;;;;;;;21.89;45.48;101064.22;4992922;28;20046;-95
2023/06/07 11:03:01;;;;;;;8.85;6.20;;;;;;;21.88;44.42;101076.53;5167705;23;20054;-96
2023/06/07 11:05:55;;;;;;;10.75;6.03;;;;;;;21.92;46.28;101066.56;4978215;28;20125;-96
2023/06/07 11:08:45;;;;;;;10.07;5.50;;;;;;;22.06;44.24;101073.94;4994412;28;20034;-96
2023/06/07 11:12:02;;;;;;;8.35;5.97;;;;;;;21.02;46.16;101088.94;4995049;28;20031;-96
2023/06/07 11:15:20;;;;;;;14.23;5.43;;;;;;;22.18;44.53;101080.66;4930330;28;20041;-96
2023/06/07 11:18:38;;;;;;;;;;;;;;;;;;;;;
2023/06/07 11:21:18;;;;;;;11.30;5.63;;;;;;;21.41;45.98;101073.13;4953499;28;20114;-96
2023/06/07 11:24:33;;;;;;;9.05;5.38;;;;;;;20.65;46.96;101060.78;4987496;28;20050;-96
2023/06/07 11:27:21;;;;;;;;;;;;;;;;;;;;;
2023/06/07 11:30:32;;;;;;;;;;;;;;;;;;;;;
2023/06/07 11:33:22;;;;;;;8.15;4.90;;;;;;;22.70;44.91;101055.50;4969908;28;20045;-96
2023/06/07 11:36:31;;;;;;;7.40;5.72;;;;;;;21.75;45.22;101057.66;4994369;28;20199;-96
2023/06/07 11:39:27;;;;;;;9.85;5.00;;;;;;;22.59;44.46;101060.03;4978079;28;20065;-96
2023/06/07 11:52:18;;;;;;;12.23;5.30;;;;;;;22.95;43.60;101051.28;5529256;23;20058;-96
2023/06/07 11:54:43;;;;;;;9.38;6.47;;;;;;;22.07;45.18;101049.31;5016525;28;20385;-96
2023/06/07 11:57:09;;;;;;;8.70;5.07;;;;;;;22.45;45.01;101042.16;5012595;28;20017;-96
2023/06/07 12:02:46;;;;;;;7.10;3.78;;;;;;;23.85;43.25;101041.22;5017216;28;20054;-96
2023/06/07 12:05:12;;;;;;;7.95;5.15;;;;;;;23.84;42.98;101037.78;5016226;28;20022;-96
2023/06/07 12:07:42;;;;;;;8.90;5.05;;;;;;;23.00;43.30;101036.69;5016523;28;20022;-96
2023/06/07 12:10:11;;;;;;;9.57;5.88;;;;;;;22.13;45.00;101038.19;5014989;28;20092;-96
2023/06/07 12:12:39;;;;;;;7.18;5.03;;;;;;;23.21;43.87;101038.13;5012437;28;20029;-96
2023/06/07 12:15:05;;;;;;;8.13;4.53;;;;;;;24.05;43.50;101031.25;5011954;28;20026;-96
2023/06/07 12:17:34;;;;;;;10.35;6.05;;;;;;;23.25;43.26;101028.94;5011684;28;20026;-96